createdAt,value
2018-10-01T00:02:03.718Z,1.60
2018-10-01T00:04:30.735Z,1.70
2018-10-01T00:06:57.538Z,1.63
2018-10-01T00:09:24.510Z,1.53
2018-10-01T00:11:51.205Z,1.63
2018-10-01T00:14:18.031Z,1.60
2018-10-01T00:16:44.905Z,1.67
2018-10-01T00:19:17.226Z,1.43
2018-10-01T00:21:49.386Z,1.40
2018-10-01T00:24:16.139Z,1.53
2018-10-01T00:26:42.877Z,2.00
2018-10-01T00:29:09.622Z,1.33
2018-10-01T00:31:36.369Z,1.50
2018-10-01T00:34:03.347Z,1.30
2018-10-01T00:36:30.159Z,1.37
2018-10-01T00:38:56.905Z,1.50
2018-10-01T00:41:23.823Z,1.50
2018-10-01T00:43:50.575Z,1.23
2018-10-01T00:46:17.315Z,1.40
2018-10-01T00:48:44.031Z,1.30
2018-10-01T00:51:11.269Z,1.70
2018-10-01T00:53:38.346Z,1.37
2018-10-01T00:56:05.056Z,1.43
2018-10-01T00:58:31.729Z,1.67
2018-10-01T01:00:58.447Z,1.20
2018-10-01T01:03:25.185Z,1.23
2018-10-01T01:05:51.988Z,1.30
2018-10-01T01:08:18.661Z,1.60
2018-10-01T01:10:45.366Z,1.70
2018-10-01T01:13:12.459Z,1.20
2018-10-01T01:15:39.943Z,1.17
2018-10-01T01:18:06.584Z,1.50
2018-10-01T01:20:33.548Z,1.10
2018-10-01T01:23:00.366Z,1.63
2018-10-01T01:25:27.152Z,1.53
2018-10-01T01:27:53.877Z,1.20
2018-10-01T01:30:20.737Z,1.50
2018-10-01T01:32:47.446Z,0.97
2018-10-01T01:35:14.308Z,1.50
2018-10-01T01:37:41.179Z,1.47
2018-10-01T01:40:08.135Z,1.20
2018-10-01T01:42:34.958Z,1.10
2018-10-01T01:45:02.052Z,1.33
2018-10-01T01:47:28.751Z,1.10
2018-10-01T01:49:55.857Z,1.30
2018-10-01T01:52:22.639Z,0.90
2018-10-01T01:54:49.590Z,1.43
2018-10-01T01:57:17.378Z,0.97
2018-10-01T01:59:44.460Z,1.27
2018-10-01T02:02:11.188Z,1.30
2018-10-01T02:04:38.702Z,1.40
2018-10-01T02:07:05.415Z,1.03
2018-10-01T02:09:32.191Z,1.47
2018-10-01T02:11:59.338Z,0.90
2018-10-01T02:14:26.288Z,1.30
2018-10-01T02:16:53.201Z,1.13
2018-10-01T02:19:20.134Z,1.63
2018-10-01T02:21:47.629Z,1.10
2018-10-01T02:24:14.387Z,1.20
2018-10-01T02:26:41.265Z,1.10
2018-10-01T02:29:08.379Z,1.10
2018-10-01T02:31:35.322Z,1.17
2018-10-01T02:34:02.851Z,1.10
2018-10-01T02:36:32.143Z,1.20
2018-10-01T02:38:59.509Z,1.30
2018-10-01T02:41:27.013Z,1.10
2018-10-01T02:43:54.721Z,0.83
2018-10-01T02:46:21.563Z,1.20
2018-10-01T02:48:48.984Z,1.10
2018-10-01T02:51:15.812Z,0.90
2018-10-01T02:53:48.171Z,1.00
2018-10-01T02:56:15.567Z,1.30
2018-10-01T02:58:42.693Z,1.00
2018-10-01T03:01:09.449Z,1.20
2018-10-01T03:03:36.634Z,1.13
2018-10-01T03:06:03.615Z,1.10
2018-10-01T03:08:30.420Z,0.90
2018-10-01T03:10:57.383Z,1.20
2018-10-01T03:13:24.304Z,0.80
2018-10-01T03:15:51.420Z,1.20
2018-10-01T03:18:18.158Z,1.27
2018-10-01T03:20:45.064Z,1.03
2018-10-01T03:23:12.088Z,0.87
2018-10-01T03:25:39.048Z,1.07
2018-10-01T03:28:05.838Z,0.97
2018-10-01T03:30:32.813Z,0.97
2018-10-01T03:33:00.027Z,0.60
2018-10-01T03:35:26.910Z,0.90
2018-10-01T03:37:53.782Z,0.80
2018-10-01T03:40:20.765Z,0.80
2018-10-01T03:42:47.658Z,0.90
2018-10-01T03:45:14.480Z,0.87
2018-10-01T03:47:41.420Z,1.00
2018-10-01T03:50:08.608Z,0.80
2018-10-01T03:52:35.411Z,0.73
2018-10-01T03:55:02.396Z,0.60
2018-10-01T03:57:29.124Z,0.70
2018-10-01T03:59:55.900Z,0.73
2018-10-01T04:02:22.630Z,0.80
2018-10-01T04:04:49.492Z,0.87
2018-10-01T04:07:16.255Z,0.60
2018-10-01T04:09:43.231Z,0.83
2018-10-01T04:12:10.272Z,0.70
2018-10-01T04:14:37.078Z,0.40
2018-10-01T04:17:03.906Z,0.97
2018-10-01T04:19:31.195Z,0.80
2018-10-01T04:21:57.904Z,1.13
2018-10-01T04:24:24.895Z,0.70
2018-10-01T04:26:51.611Z,1.07
2018-10-01T04:29:18.328Z,0.40
2018-10-01T04:31:45.706Z,0.63
2018-10-01T04:34:12.623Z,0.90
2018-10-01T04:36:39.550Z,0.57
2018-10-01T04:39:06.715Z,0.70
2018-10-01T04:41:33.471Z,0.80
2018-10-01T04:44:08.723Z,0.70
2018-10-01T04:46:36.068Z,0.63
2018-10-01T04:49:02.945Z,0.50
2018-10-01T04:51:31.087Z,0.70
2018-10-01T04:53:57.889Z,0.80
2018-10-01T04:56:24.735Z,0.87
2018-10-01T04:58:52.391Z,0.70
2018-10-01T05:01:19.191Z,0.77
2018-10-01T05:03:47.106Z,0.70
2018-10-01T05:06:14.459Z,0.93
2018-10-01T05:08:41.889Z,0.70
2018-10-01T05:11:09.749Z,0.70
2018-10-01T05:13:36.493Z,0.80
2018-10-01T05:16:03.355Z,0.60
2018-10-01T05:18:30.205Z,0.40
2018-10-01T05:20:57.065Z,0.70
2018-10-01T05:23:24.475Z,0.60
2018-10-01T05:25:51.465Z,0.70
2018-10-01T05:28:18.381Z,0.70
2018-10-01T05:30:45.239Z,0.70
2018-10-01T05:33:12.278Z,0.50
2018-10-01T05:35:39.264Z,0.70
2018-10-01T05:38:06.089Z,0.90
2018-10-01T05:40:33.881Z,0.60
2018-10-01T05:43:00.974Z,0.50
2018-10-01T05:45:27.858Z,0.70
2018-10-01T05:47:54.719Z,0.70
2018-10-01T05:50:21.852Z,0.70
2018-10-01T05:52:48.806Z,0.63
2018-10-01T05:55:15.498Z,0.57
2018-10-01T05:57:42.555Z,0.80
2018-10-01T06:00:09.313Z,0.77
2018-10-01T06:02:36.173Z,0.77
2018-10-01T06:05:03.244Z,0.60
2018-10-01T06:07:30.788Z,0.70
2018-10-01T06:09:57.702Z,0.70
2018-10-01T06:12:25.598Z,0.50
2018-10-01T06:14:52.340Z,0.60
2018-10-01T06:17:19.327Z,0.77
2018-10-01T06:19:46.616Z,0.73
2018-10-01T06:22:14.116Z,0.47
2018-10-01T06:24:40.920Z,0.90
2018-10-01T06:27:07.789Z,0.80
2018-10-01T06:29:35.017Z,0.77
2018-10-01T06:32:02.094Z,0.80
2018-10-01T06:34:29.069Z,0.70
2018-10-01T06:36:56.029Z,0.53
2018-10-01T06:39:22.860Z,1.07
2018-10-01T06:41:50.070Z,0.90
2018-10-01T06:44:18.389Z,0.57
2018-10-01T06:46:45.338Z,0.50
2018-10-01T06:49:12.432Z,0.50
2018-10-01T06:51:39.506Z,0.60
2018-10-01T06:54:07.067Z,0.50
2018-10-01T06:56:35.145Z,0.60
2018-10-01T06:59:02.442Z,0.57
2018-10-01T07:01:29.959Z,0.60
2018-10-01T07:03:57.110Z,0.97
2018-10-01T07:06:24.024Z,1.00
2018-10-01T07:08:51.922Z,0.50
2018-10-01T07:11:19.513Z,0.70
2018-10-01T07:13:46.430Z,0.60
2018-10-01T07:16:13.602Z,0.60
2018-10-01T07:18:40.650Z,0.70
2018-10-01T07:21:07.542Z,0.67
2018-10-01T07:23:34.494Z,0.70
2018-10-01T07:26:01.616Z,0.70
2018-10-01T07:28:28.828Z,1.03
2018-10-01T07:30:55.826Z,0.50
2018-10-01T07:33:23.026Z,0.77
2018-10-01T07:35:50.361Z,0.83
2018-10-01T07:38:19.023Z,0.83
2018-10-01T07:40:45.956Z,0.43
2018-10-01T07:43:13.279Z,0.80
2018-10-01T07:45:40.714Z,0.70
2018-10-01T07:48:07.520Z,0.40
2018-10-01T07:50:35.246Z,0.60
2018-10-01T07:53:02.920Z,0.40
2018-10-01T07:55:29.890Z,0.60
2018-10-01T07:57:56.992Z,0.73
2018-10-01T08:00:24.753Z,0.47
2018-10-01T08:02:51.852Z,0.53
2018-10-01T08:05:19.683Z,0.60
2018-10-01T08:07:46.538Z,0.70
2018-10-01T08:10:13.885Z,0.40
2018-10-01T08:12:40.894Z,0.57
2018-10-01T08:15:07.694Z,0.57
2018-10-01T08:17:35.191Z,0.60
2018-10-01T08:20:02.812Z,0.50
2018-10-01T08:22:30.048Z,0.63
2018-10-01T08:24:56.834Z,0.63
2018-10-01T08:27:23.945Z,0.50
2018-10-01T08:29:51.124Z,0.30
2018-10-01T08:32:17.923Z,0.67
2018-10-01T08:34:45.604Z,0.60
2018-10-01T08:37:12.704Z,0.50
2018-10-01T08:39:39.555Z,0.50
2018-10-01T08:42:06.475Z,0.60
2018-10-01T08:44:33.555Z,0.60
2018-10-01T08:47:01.039Z,0.50
2018-10-01T08:49:47.946Z,0.50
2018-10-01T08:52:20.420Z,0.50
2018-10-01T08:54:48.819Z,1.00
2018-10-01T08:57:16.311Z,0.63
2018-10-01T08:59:43.514Z,0.80
2018-10-01T09:02:10.696Z,0.57
2018-10-01T09:04:37.630Z,0.60
2018-10-01T09:07:04.371Z,0.90
2018-10-01T09:09:31.112Z,0.70
2018-10-01T09:11:57.937Z,1.10
2018-10-01T09:14:25.975Z,0.60
2018-10-01T09:16:53.392Z,0.60
2018-10-01T09:19:20.697Z,0.63
2018-10-01T09:21:47.783Z,0.63
2018-10-01T09:24:14.506Z,0.77
2018-10-01T09:26:41.663Z,1.00
2018-10-01T09:29:08.481Z,0.90
2018-10-01T09:31:35.579Z,0.70
2018-10-01T09:34:08.441Z,0.90
2018-10-01T09:36:35.277Z,0.70
2018-10-01T09:39:02.674Z,0.73
2018-10-01T09:41:29.505Z,0.77
2018-10-01T09:43:56.368Z,1.00
2018-10-01T09:46:23.119Z,1.03
2018-10-01T09:48:50.669Z,1.40
2018-10-01T09:51:17.892Z,1.13
2018-10-01T09:53:44.940Z,1.23
2018-10-01T09:56:11.892Z,1.17
2018-10-01T09:58:38.732Z,0.97
2018-10-01T10:01:08.808Z,0.97
2018-10-01T10:03:35.914Z,0.67
2018-10-01T10:06:02.746Z,0.63
2018-10-01T10:08:29.845Z,1.07
2018-10-01T10:10:56.652Z,0.90
2018-10-01T10:13:23.574Z,0.90
2018-10-01T10:15:50.570Z,0.80
2018-10-01T10:18:17.700Z,0.90
2018-10-01T10:20:44.509Z,1.20
2018-10-01T10:23:11.208Z,1.47
2018-10-01T10:25:38.344Z,0.90
2018-10-01T10:28:05.221Z,0.97
2018-10-01T10:30:32.071Z,1.43
2018-10-01T10:32:58.795Z,1.70
2018-10-01T10:35:25.611Z,1.10
2018-10-01T10:37:52.570Z,1.20
2018-10-01T10:40:19.716Z,0.77
2018-10-01T10:42:46.635Z,0.90
2018-10-01T10:45:13.548Z,1.10
2018-10-01T10:47:40.355Z,1.00
2018-10-01T10:50:07.519Z,0.73
2018-10-01T10:52:34.335Z,0.87
2018-10-01T10:55:01.318Z,1.10
2018-10-01T10:57:28.049Z,0.83
2018-10-01T10:59:54.832Z,1.20
2018-10-01T11:02:21.675Z,0.90
2018-10-01T11:04:48.512Z,0.90
2018-10-01T11:07:15.439Z,1.20
2018-10-01T11:09:42.279Z,1.10
2018-10-01T11:12:09.051Z,1.00
2018-10-01T11:14:36.218Z,0.90
2018-10-01T11:17:03.011Z,1.30
2018-10-01T11:19:29.867Z,0.80
2018-10-01T11:21:57.069Z,1.13
2018-10-01T11:24:23.819Z,0.90
2018-10-01T11:26:50.606Z,1.50
2018-10-01T11:29:17.405Z,1.03
2018-10-01T11:31:44.595Z,1.20
2018-10-01T11:34:11.175Z,1.43
2018-10-01T11:36:38.047Z,1.10
2018-10-01T11:39:04.997Z,1.00
2018-10-01T11:41:31.772Z,1.00
2018-10-01T11:43:58.577Z,0.90
2018-10-01T11:46:25.521Z,1.03
2018-10-01T11:48:52.279Z,1.20
2018-10-01T11:51:19.196Z,0.97
2018-10-01T11:53:46.004Z,1.00
2018-10-01T11:56:12.837Z,1.23
2018-10-01T11:58:39.813Z,1.30
2018-10-01T12:01:06.622Z,1.20
2018-10-01T12:03:33.579Z,1.40
2018-10-01T12:06:00.263Z,1.00
2018-10-01T12:08:27.028Z,0.80
2018-10-01T12:10:53.773Z,0.87
2018-10-01T12:13:20.612Z,0.97
2018-10-01T12:15:47.580Z,0.80
2018-10-01T12:18:14.588Z,0.73
2018-10-01T12:20:41.804Z,1.00
2018-10-01T12:23:08.625Z,0.73
2018-10-01T12:25:35.576Z,0.73
2018-10-01T12:28:02.504Z,1.10
2018-10-01T12:30:29.267Z,1.23
2018-10-01T12:32:56.229Z,0.90
2018-10-01T12:35:24.162Z,1.00
2018-10-01T12:37:51.038Z,1.00
2018-10-01T12:40:17.936Z,1.47
2018-10-01T12:42:44.746Z,1.00
2018-10-01T12:45:11.689Z,1.20
2018-10-01T12:47:38.503Z,1.00
2018-10-01T12:50:05.250Z,1.13
2018-10-01T12:52:32.544Z,1.07
2018-10-01T12:54:59.926Z,1.50
2018-10-01T12:57:26.846Z,0.87
2018-10-01T12:59:53.922Z,0.93
2018-10-01T13:02:21.516Z,1.10
2018-10-01T13:04:48.427Z,1.50
2018-10-01T13:07:15.384Z,1.23
2018-10-01T13:09:42.473Z,1.60
2018-10-01T13:12:09.698Z,1.83
2018-10-01T13:14:37.542Z,1.30
2018-10-01T13:17:04.285Z,1.73
2018-10-01T13:19:31.123Z,1.47
2018-10-01T13:21:58.767Z,1.17
2018-10-01T13:24:26.356Z,1.30
2018-10-01T13:26:53.178Z,1.63
2018-10-01T13:29:20.991Z,1.37
2018-10-01T13:31:49.741Z,1.33
2018-10-01T13:34:16.729Z,1.00
2018-10-01T13:36:44.555Z,1.60
2018-10-01T13:39:12.371Z,1.43
2018-10-01T13:41:39.803Z,1.50
2018-10-01T13:44:07.179Z,1.40
2018-10-01T13:46:34.220Z,1.07
2018-10-01T13:49:01.247Z,1.33
2018-10-01T13:51:27.993Z,1.27
2018-10-01T13:53:54.800Z,1.30
2018-10-01T13:56:21.577Z,1.20
2018-10-01T13:58:48.707Z,1.53
2018-10-01T14:01:15.588Z,1.00
2018-10-01T14:03:42.429Z,0.77
2018-10-01T14:06:10.049Z,1.27
2018-10-01T14:08:37.277Z,1.37
2018-10-01T14:11:04.287Z,1.27
2018-10-01T14:13:32.040Z,0.90
2018-10-01T14:15:58.866Z,0.50
2018-10-01T14:18:25.755Z,1.27
2018-10-01T14:20:52.591Z,1.73
2018-10-01T14:23:20.572Z,1.47
2018-10-01T14:25:47.452Z,1.07
2018-10-01T14:28:14.390Z,1.23
2018-10-01T14:30:41.497Z,1.43
2018-10-01T14:33:09.412Z,1.40
2018-10-01T14:35:36.517Z,0.80
2018-10-01T14:38:03.694Z,1.20
2018-10-01T14:40:31.151Z,0.97
2018-10-01T14:42:58.118Z,0.90
2018-10-01T14:45:25.643Z,0.93
2018-10-01T14:47:54.812Z,0.60
2018-10-01T14:50:21.848Z,1.10
2018-10-01T14:52:49.363Z,1.07
2018-10-01T14:55:16.158Z,1.10
2018-10-01T14:57:43.272Z,0.87
2018-10-01T15:00:10.442Z,0.67
2018-10-01T15:02:37.329Z,1.07
2018-10-01T15:05:04.214Z,0.93
2018-10-01T15:07:31.069Z,0.90
2018-10-01T15:09:57.882Z,1.10
2018-10-01T15:12:24.680Z,0.97
2018-10-01T15:14:51.394Z,0.70
2018-10-01T15:17:18.230Z,0.70
2018-10-01T15:19:45.169Z,1.07
2018-10-01T15:22:12.184Z,0.67
2018-10-01T15:24:39.362Z,0.93
2018-10-01T15:27:06.262Z,0.97
2018-10-01T15:29:33.172Z,1.17
2018-10-01T15:31:59.923Z,0.90
2018-10-01T15:34:26.687Z,1.00
2018-10-01T15:36:53.610Z,0.73
2018-10-01T15:39:20.812Z,0.80
2018-10-01T15:41:47.512Z,1.00
2018-10-01T15:44:14.446Z,0.93
2018-10-01T15:46:42.441Z,0.50
2018-10-01T15:49:09.363Z,0.93
2018-10-01T15:51:36.288Z,1.20
2018-10-01T15:54:09.579Z,0.63
2018-10-01T15:56:36.924Z,0.60
2018-10-01T15:59:04.887Z,0.50
2018-10-01T16:01:32.854Z,0.80
2018-10-01T16:03:59.603Z,0.63
2018-10-01T16:06:26.409Z,0.57
2018-10-01T16:08:53.844Z,0.50
2018-10-01T16:11:20.752Z,0.97
2018-10-01T16:13:48.529Z,0.80
2018-10-01T16:16:15.486Z,0.60
2018-10-01T16:18:42.456Z,0.60
2018-10-01T16:21:09.652Z,0.60
2018-10-01T16:23:37.312Z,0.47
2018-10-01T16:26:04.394Z,0.57
2018-10-01T16:28:31.492Z,0.60
2018-10-01T16:30:58.477Z,0.60
2018-10-01T16:33:25.816Z,1.00
2018-10-01T16:35:52.602Z,0.70
2018-10-01T16:38:19.824Z,0.63
2018-10-01T16:40:46.618Z,0.47
2018-10-01T16:43:13.563Z,0.60
2018-10-01T16:45:40.710Z,0.50
2018-10-01T16:48:09.595Z,1.20
2018-10-01T16:50:38.831Z,0.70
2018-10-01T16:53:06.741Z,0.90
2018-10-01T16:55:33.984Z,0.73
2018-10-01T16:58:01.429Z,0.60
2018-10-01T17:00:28.477Z,0.90
2018-10-01T17:02:55.972Z,0.43
2018-10-01T17:05:22.784Z,0.90
2018-10-01T17:07:49.579Z,0.80
2018-10-01T17:10:16.438Z,0.67
2018-10-01T17:12:43.175Z,0.73
2018-10-01T17:15:10.605Z,1.33
2018-10-01T17:17:37.942Z,0.80
2018-10-01T17:20:04.767Z,1.10
2018-10-01T17:22:31.777Z,0.47
2018-10-01T17:24:58.576Z,0.87
2018-10-01T17:27:25.855Z,0.97
2018-10-01T17:29:52.757Z,0.90
2018-10-01T17:32:19.833Z,1.00
2018-10-01T17:34:46.576Z,0.97
2018-10-01T17:37:13.348Z,1.00
2018-10-01T17:39:40.069Z,1.30
2018-10-01T17:42:06.785Z,0.90
2018-10-01T17:44:33.547Z,0.73
2018-10-01T17:47:00.381Z,0.60
2018-10-01T17:49:27.132Z,0.60
2018-10-01T17:51:53.953Z,0.70
2018-10-01T17:54:20.789Z,0.57
2018-10-01T17:56:47.574Z,0.93
2018-10-01T17:59:14.327Z,0.80
2018-10-01T18:01:41.063Z,0.73
2018-10-01T18:04:07.938Z,0.60
2018-10-01T18:06:34.662Z,1.00
2018-10-01T18:09:01.401Z,0.80
2018-10-01T18:11:28.121Z,0.90
2018-10-01T18:13:54.881Z,0.97
2018-10-01T18:16:21.813Z,0.63
2018-10-01T18:18:48.648Z,0.70
2018-10-01T18:21:15.441Z,1.07
2018-10-01T18:23:42.264Z,0.53
2018-10-01T18:26:09.090Z,0.80
2018-10-01T18:28:36.046Z,0.90
2018-10-01T18:31:02.985Z,1.00
2018-10-01T18:33:30.079Z,0.77
2018-10-01T18:35:57.560Z,0.60
2018-10-01T18:38:24.595Z,0.43
2018-10-01T18:40:51.330Z,1.10
2018-10-01T18:43:18.096Z,1.07
2018-10-01T18:45:44.909Z,0.80
2018-10-01T18:48:12.335Z,1.00
2018-10-01T18:50:39.334Z,0.80
2018-10-01T18:53:06.262Z,0.70
2018-10-01T18:55:32.979Z,0.90
2018-10-01T18:57:59.751Z,0.87
2018-10-01T19:00:26.543Z,0.80
2018-10-01T19:02:53.285Z,1.20
2018-10-01T19:05:20.902Z,0.70
2018-10-01T19:07:48.336Z,0.90
2018-10-01T19:10:15.127Z,1.00
2018-10-01T19:12:41.830Z,0.83
2018-10-01T19:15:09.150Z,0.90
2018-10-01T19:17:35.859Z,0.97
2018-10-01T19:20:02.663Z,1.03
2018-10-01T19:22:29.457Z,0.93
2018-10-01T19:24:56.201Z,0.80
2018-10-01T19:27:23.084Z,1.00
2018-10-01T19:29:49.803Z,1.00
2018-10-01T19:32:19.427Z,1.23
2018-10-01T19:34:46.151Z,0.93
2018-10-01T19:37:13.094Z,0.90
2018-10-01T19:39:39.824Z,0.30
2018-10-01T19:42:06.615Z,0.87
2018-10-01T19:44:33.411Z,0.87
2018-10-01T19:47:00.336Z,0.70
2018-10-01T19:49:26.999Z,0.83
2018-10-01T19:51:53.768Z,1.17
2018-10-01T19:54:20.783Z,0.97
2018-10-01T19:56:47.661Z,0.87
2018-10-01T19:59:14.599Z,0.90
2018-10-01T20:01:41.352Z,0.70
2018-10-01T20:04:08.091Z,0.80
2018-10-01T20:06:34.839Z,1.07
2018-10-01T20:09:02.331Z,0.90
2018-10-01T20:11:29.834Z,0.80
2018-10-01T20:13:56.645Z,0.83
2018-10-01T20:16:23.529Z,0.80
2018-10-01T20:18:50.623Z,0.70
2018-10-01T20:21:17.609Z,0.80
2018-10-01T20:23:44.562Z,0.70
2018-10-01T20:26:11.712Z,0.70
2018-10-01T20:28:38.620Z,0.70
2018-10-01T20:31:05.235Z,1.03
2018-10-01T20:33:32.081Z,0.87
2018-10-01T20:35:59.085Z,0.80
2018-10-01T20:38:25.788Z,0.97
2018-10-01T20:40:52.607Z,0.80
2018-10-01T20:43:19.405Z,0.60
2018-10-01T20:45:46.325Z,1.07
2018-10-01T20:48:13.290Z,1.03
2018-10-01T20:50:40.044Z,0.50
2018-10-01T20:53:06.897Z,0.70
2018-10-01T20:55:33.669Z,0.80
2018-10-01T20:58:00.552Z,1.00
2018-10-01T21:00:27.382Z,0.97
2018-10-01T21:02:54.172Z,0.90
2018-10-01T21:05:21.130Z,1.30
2018-10-01T21:07:47.934Z,0.97
2018-10-01T21:10:14.742Z,1.00
2018-10-01T21:12:41.546Z,0.87
2018-10-01T21:15:08.437Z,1.10
2018-10-01T21:17:35.304Z,1.13
2018-10-01T21:20:02.049Z,1.10
2018-10-01T21:22:28.820Z,1.20
2018-10-01T21:24:55.557Z,1.07
2018-10-01T21:27:22.304Z,1.00
2018-10-01T21:29:49.167Z,1.13
2018-10-01T21:32:16.021Z,0.93
2018-10-01T21:34:43.045Z,1.07
2018-10-01T21:37:09.791Z,1.10
2018-10-01T21:39:36.597Z,1.30
2018-10-01T21:42:03.335Z,1.30
2018-10-01T21:44:30.249Z,1.00
2018-10-01T21:46:57.007Z,1.40
2018-10-01T21:49:23.775Z,1.03
2018-10-01T21:51:50.711Z,1.50
2018-10-01T21:54:17.480Z,1.50
2018-10-01T21:56:44.232Z,1.47
2018-10-01T21:59:10.989Z,1.37
2018-10-01T22:01:39.604Z,1.73
2018-10-01T22:04:06.403Z,1.27
2018-10-01T22:06:33.376Z,1.40
2018-10-01T22:09:00.442Z,1.30
2018-10-01T22:11:27.328Z,1.27
2018-10-01T22:13:54.197Z,1.37
2018-10-01T22:16:20.953Z,1.47
2018-10-01T22:18:47.697Z,1.40
2018-10-01T22:21:14.523Z,1.30
2018-10-01T22:23:41.250Z,1.40
2018-10-01T22:26:08.172Z,1.53
2018-10-01T22:28:35.157Z,1.30
2018-10-01T22:31:01.933Z,1.57
2018-10-01T22:33:28.808Z,1.70
2018-10-01T22:35:55.618Z,1.70
2018-10-01T22:38:22.340Z,1.40
2018-10-01T22:40:49.088Z,1.40
2018-10-01T22:43:16.021Z,1.67
2018-10-01T22:45:42.794Z,1.93
2018-10-01T22:48:09.672Z,1.33
2018-10-01T22:50:36.482Z,1.70
2018-10-01T22:53:03.256Z,1.80
2018-10-01T22:55:30.015Z,1.93
2018-10-01T22:57:56.804Z,1.50
2018-10-01T23:00:23.754Z,1.63
2018-10-01T23:02:50.551Z,1.30
2018-10-01T23:05:17.303Z,1.60
2018-10-01T23:07:44.147Z,1.63
2018-10-01T23:10:10.904Z,1.53
2018-10-01T23:12:37.681Z,1.60
2018-10-01T23:15:04.489Z,1.50
2018-10-01T23:17:31.509Z,1.97
2018-10-01T23:19:58.396Z,1.70
2018-10-01T23:22:25.545Z,1.83
2018-10-01T23:24:54.011Z,1.67
2018-10-01T23:27:21.871Z,2.03
2018-10-01T23:29:48.808Z,2.00
2018-10-01T23:32:15.823Z,1.77
2018-10-01T23:34:42.807Z,1.70
2018-10-01T23:37:09.715Z,1.67
2018-10-01T23:39:36.662Z,1.47
2018-10-01T23:42:03.493Z,1.80
2018-10-01T23:44:30.159Z,1.60
2018-10-01T23:46:56.873Z,1.80
2018-10-01T23:49:24.721Z,1.97
2018-10-01T23:51:51.722Z,1.60
2018-10-01T23:54:18.748Z,1.63
2018-10-01T23:56:46.684Z,1.77
2018-10-01T23:59:13.535Z,1.67
